sensor_id;sensor_type;location;lat;lon;timestamp;temperature;humidity
16417;DHT22;8317;52.186;5.688;2022-08-19T00:00:30;18.20;99.90
16417;DHT22;8317;52.186;5.688;2022-08-19T00:02:57;18.50;99.90
16417;DHT22;8317;52.186;5.688;2022-08-19T00:05:24;18.30;99.90
16417;DHT22;8317;52.186;5.688;2022-08-19T00:07:51;18.20;99.90
16417;DHT22;8317;52.186;5.688;2022-08-19T00:10:19;17.90;99.90
16417;DHT22;8317;52.186;5.688;2022-08-19T00:12:47;18.10;99.90
16417;DHT22;8317;52.186;5.688;2022-08-19T00:15:17;18.10;99.90
16417;DHT22;8317;52.186;5.688;2022-08-19T00:17:46;18.00;99.90
16417;DHT22;8317;52.186;5.688;2022-08-19T00:20:15;18.10;99.90
16417;DHT22;8317;52.186;5.688;2022-08-19T00:22:43;18.00;99.90
16417;DHT22;8317;52.186;5.688;2022-08-19T00:25:10;18.20;99.90
16417;DHT22;8317;52.186;5.688;2022-08-19T00:27:37;18.10;99.90
16417;DHT22;8317;52.186;5.688;2022-08-19T00:30:06;17.90;99.90
16417;DHT22;8317;52.186;5.688;2022-08-19T00:32:36;18.10;99.90
16417;DHT22;8317;52.186;5.688;2022-08-19T00:35:05;17.90;99.90
16417;DHT22;8317;52.186;5.688;2022-08-19T00:37:32;18.00;99.90
16417;DHT22;8317;52.186;5.688;2022-08-19T00:40:00;17.90;99.90
16417;DHT22;8317;52.186;5.688;2022-08-19T00:42:29;17.70;99.90
16417;DHT22;8317;52.186;5.688;2022-08-19T00:44:55;18.00;99.90
16417;DHT22;8317;52.186;5.688;2022-08-19T00:47:22;17.90;99.90
16417;DHT22;8317;52.186;5.688;2022-08-19T00:49:52;17.70;99.90
16417;DHT22;8317;52.186;5.688;2022-08-19T00:52:23;17.40;99.90
16417;DHT22;8317;52.186;5.688;2022-08-19T00:54:53;17.30;99.90
16417;DHT22;8317;52.186;5.688;2022-08-19T00:57:24;17.30;99.90
16417;DHT22;8317;52.186;5.688;2022-08-19T00:59:54;17.60;99.90
16417;DHT22;8317;52.186;5.688;2022-08-19T01:02:22;17.60;99.90
16417;DHT22;8317;52.186;5.688;2022-08-19T01:04:50;17.40;99.90
16417;DHT22;8317;52.186;5.688;2022-08-19T01:07:17;17.50;99.90
16417;DHT22;8317;52.186;5.688;2022-08-19T01:09:46;17.30;99.90
16417;DHT22;8317;52.186;5.688;2022-08-19T01:12:13;17.30;99.90
16417;DHT22;8317;52.186;5.688;2022-08-19T01:14:40;17.50;99.90
16417;DHT22;8317;52.186;5.688;2022-08-19T01:17:08;17.40;99.90
16417;DHT22;8317;52.186;5.688;2022-08-19T01:19:37;17.40;99.90
16417;DHT22;8317;52.186;5.688;2022-08-19T01:22:14;17.40;99.90
16417;DHT22;8317;52.186;5.688;2022-08-19T01:24:44;17.40;99.90
16417;DHT22;8317;52.186;5.688;2022-08-19T01:27:11;17.20;99.90
16417;DHT22;8317;52.186;5.688;2022-08-19T01:29:39;17.40;99.90
16417;DHT22;8317;52.186;5.688;2022-08-19T01:32:07;17.30;99.90
16417;DHT22;8317;52.186;5.688;2022-08-19T01:34:34;17.20;99.90
16417;DHT22;8317;52.186;5.688;2022-08-19T01:37:06;17.20;99.90
16417;DHT22;8317;52.186;5.688;2022-08-19T01:39:37;17.10;99.90
16417;DHT22;8317;52.186;5.688;2022-08-19T01:42:06;16.80;99.90
16417;DHT22;8317;52.186;5.688;2022-08-19T01:44:36;16.80;99.90
16417;DHT22;8317;52.186;5.688;2022-08-19T01:47:04;16.90;99.90
16417;DHT22;8317;52.186;5.688;2022-08-19T01:49:32;17.00;99.90
16417;DHT22;8317;52.186;5.688;2022-08-19T01:51:59;17.00;99.90
16417;DHT22;8317;52.186;5.688;2022-08-19T01:54:27;16.90;99.90
16417;DHT22;8317;52.186;5.688;2022-08-19T01:56:57;16.90;99.90
16417;DHT22;8317;52.186;5.688;2022-08-19T01:59:26;16.80;99.90
16417;DHT22;8317;52.186;5.688;2022-08-19T02:01:54;16.80;99.90
16417;DHT22;8317;52.186;5.688;2022-08-19T02:04:21;16.60;99.90
16417;DHT22;8317;52.186;5.688;2022-08-19T02:06:48;16.60;99.90
16417;DHT22;8317;52.186;5.688;2022-08-19T02:09:16;16.60;99.90
16417;DHT22;8317;52.186;5.688;2022-08-19T02:11:43;16.90;99.90
16417;DHT22;8317;52.186;5.688;2022-08-19T02:14:09;16.50;99.90
16417;DHT22;8317;52.186;5.688;2022-08-19T02:16:38;16.50;99.90
16417;DHT22;8317;52.186;5.688;2022-08-19T02:19:06;16.50;99.90
16417;DHT22;8317;52.186;5.688;2022-08-19T02:21:33;16.40;99.90
16417;DHT22;8317;52.186;5.688;2022-08-19T02:24:00;16.40;99.90
16417;DHT22;8317;52.186;5.688;2022-08-19T02:26:28;16.40;99.90
16417;DHT22;8317;52.186;5.688;2022-08-19T02:28:55;16.60;99.90
16417;DHT22;8317;52.186;5.688;2022-08-19T02:31:24;16.40;99.90
16417;DHT22;8317;52.186;5.688;2022-08-19T02:33:53;16.50;99.90
16417;DHT22;8317;52.186;5.688;2022-08-19T02:36:21;16.40;99.90
16417;DHT22;8317;52.186;5.688;2022-08-19T02:38:48;16.60;99.90
16417;DHT22;8317;52.186;5.688;2022-08-19T02:41:18;16.40;99.90
16417;DHT22;8317;52.186;5.688;2022-08-19T02:43:45;16.60;99.90
16417;DHT22;8317;52.186;5.688;2022-08-19T02:46:14;16.50;99.90
16417;DHT22;8317;52.186;5.688;2022-08-19T02:48:43;16.40;99.90
16417;DHT22;8317;52.186;5.688;2022-08-19T02:51:18;16.30;99.90
16417;DHT22;8317;52.186;5.688;2022-08-19T02:53:45;16.10;99.90
16417;DHT22;8317;52.186;5.688;2022-08-19T02:56:12;16.00;99.90
16417;DHT22;8317;52.186;5.688;2022-08-19T02:58:39;16.10;99.90
16417;DHT22;8317;52.186;5.688;2022-08-19T03:01:06;15.80;99.90
16417;DHT22;8317;52.186;5.688;2022-08-19T03:03:33;15.80;99.90
16417;DHT22;8317;52.186;5.688;2022-08-19T03:06:05;16.10;99.90
16417;DHT22;8317;52.186;5.688;2022-08-19T03:08:33;16.00;99.90
16417;DHT22;8317;52.186;5.688;2022-08-19T03:11:00;16.10;99.90
16417;DHT22;8317;52.186;5.688;2022-08-19T03:13:27;16.00;99.90
16417;DHT22;8317;52.186;5.688;2022-08-19T03:15:54;16.20;99.90
16417;DHT22;8317;52.186;5.688;2022-08-19T03:18:21;16.00;99.90
16417;DHT22;8317;52.186;5.688;2022-08-19T03:20:49;16.20;99.90
16417;DHT22;8317;52.186;5.688;2022-08-19T03:23:18;15.80;99.90
16417;DHT22;8317;52.186;5.688;2022-08-19T03:25:47;15.90;99.90
16417;DHT22;8317;52.186;5.688;2022-08-19T03:28:15;15.80;99.90
16417;DHT22;8317;52.186;5.688;2022-08-19T03:30:53;15.70;99.90
16417;DHT22;8317;52.186;5.688;2022-08-19T03:33:22;15.70;99.90
16417;DHT22;8317;52.186;5.688;2022-08-19T03:36:00;15.80;99.90
16417;DHT22;8317;52.186;5.688;2022-08-19T03:38:27;15.80;99.90
16417;DHT22;8317;52.186;5.688;2022-08-19T03:40:56;15.80;99.90
16417;DHT22;8317;52.186;5.688;2022-08-19T03:43:23;15.70;99.90
16417;DHT22;8317;52.186;5.688;2022-08-19T03:45:59;15.80;99.90
16417;DHT22;8317;52.186;5.688;2022-08-19T03:48:28;15.90;99.90
16417;DHT22;8317;52.186;5.688;2022-08-19T03:50:56;16.10;99.90
16417;DHT22;8317;52.186;5.688;2022-08-19T03:53:24;16.20;99.90
16417;DHT22;8317;52.186;5.688;2022-08-19T03:55:51;15.90;99.90
16417;DHT22;8317;52.186;5.688;2022-08-19T03:58:20;16.00;99.90
16417;DHT22;8317;52.186;5.688;2022-08-19T04:00:47;15.90;99.90
16417;DHT22;8317;52.186;5.688;2022-08-19T04:03:14;16.00;99.90
16417;DHT22;8317;52.186;5.688;2022-08-19T04:05:41;15.80;99.90
16417;DHT22;8317;52.186;5.688;2022-08-19T04:08:08;15.80;99.90
16417;DHT22;8317;52.186;5.688;2022-08-19T04:10:35;16.00;99.90
16417;DHT22;8317;52.186;5.688;2022-08-19T04:13:03;15.70;99.90
16417;DHT22;8317;52.186;5.688;2022-08-19T04:15:32;15.70;99.90
16417;DHT22;8317;52.186;5.688;2022-08-19T04:18:05;15.60;99.90
16417;DHT22;8317;52.186;5.688;2022-08-19T04:20:33;15.50;99.90
16417;DHT22;8317;52.186;5.688;2022-08-19T04:23:00;15.60;99.90
16417;DHT22;8317;52.186;5.688;2022-08-19T04:25:27;15.70;99.90
16417;DHT22;8317;52.186;5.688;2022-08-19T04:27:53;15.70;99.90
16417;DHT22;8317;52.186;5.688;2022-08-19T04:30:20;15.70;99.90
16417;DHT22;8317;52.186;5.688;2022-08-19T04:32:49;15.90;99.90
16417;DHT22;8317;52.186;5.688;2022-08-19T04:35:16;15.70;99.90
16417;DHT22;8317;52.186;5.688;2022-08-19T04:37:43;15.50;99.90
16417;DHT22;8317;52.186;5.688;2022-08-19T04:40:10;15.40;99.90
16417;DHT22;8317;52.186;5.688;2022-08-19T04:42:55;15.20;99.90
16417;DHT22;8317;52.186;5.688;2022-08-19T04:45:21;15.40;99.90
16417;DHT22;8317;52.186;5.688;2022-08-19T04:47:53;15.40;99.90
16417;DHT22;8317;52.186;5.688;2022-08-19T04:50:21;15.40;99.90
16417;DHT22;8317;52.186;5.688;2022-08-19T04:52:50;15.30;99.90
16417;DHT22;8317;52.186;5.688;2022-08-19T04:55:17;15.40;99.90
16417;DHT22;8317;52.186;5.688;2022-08-19T04:57:44;15.50;99.90
16417;DHT22;8317;52.186;5.688;2022-08-19T05:00:12;15.50;99.90
16417;DHT22;8317;52.186;5.688;2022-08-19T05:02:39;15.40;99.90
16417;DHT22;8317;52.186;5.688;2022-08-19T05:05:07;15.50;99.90
16417;DHT22;8317;52.186;5.688;2022-08-19T05:07:34;15.30;99.90
16417;DHT22;8317;52.186;5.688;2022-08-19T05:10:01;15.10;99.90
16417;DHT22;8317;52.186;5.688;2022-08-19T05:12:28;15.10;99.90
16417;DHT22;8317;52.186;5.688;2022-08-19T05:14:55;15.20;99.90
16417;DHT22;8317;52.186;5.688;2022-08-19T05:17:22;15.30;99.90
16417;DHT22;8317;52.186;5.688;2022-08-19T05:19:49;15.40;99.90
16417;DHT22;8317;52.186;5.688;2022-08-19T05:22:35;15.20;99.90
16417;DHT22;8317;52.186;5.688;2022-08-19T05:25:06;15.30;99.90
16417;DHT22;8317;52.186;5.688;2022-08-19T05:27:33;15.40;99.90
16417;DHT22;8317;52.186;5.688;2022-08-19T05:30:00;15.50;99.90
16417;DHT22;8317;52.186;5.688;2022-08-19T05:32:27;15.50;99.90
16417;DHT22;8317;52.186;5.688;2022-08-19T05:34:54;15.50;99.90
16417;DHT22;8317;52.186;5.688;2022-08-19T05:37:21;15.50;99.90
16417;DHT22;8317;52.186;5.688;2022-08-19T05:39:50;15.60;99.90
16417;DHT22;8317;52.186;5.688;2022-08-19T05:42:16;15.60;99.90
16417;DHT22;8317;52.186;5.688;2022-08-19T05:44:46;15.80;99.90
16417;DHT22;8317;52.186;5.688;2022-08-19T05:47:15;15.70;99.90
16417;DHT22;8317;52.186;5.688;2022-08-19T05:49:44;16.00;99.90
16417;DHT22;8317;52.186;5.688;2022-08-19T05:52:13;16.00;99.90
16417;DHT22;8317;52.186;5.688;2022-08-19T05:54:41;16.00;99.90
16417;DHT22;8317;52.186;5.688;2022-08-19T05:57:10;15.90;99.90
16417;DHT22;8317;52.186;5.688;2022-08-19T05:59:37;16.00;99.90
16417;DHT22;8317;52.186;5.688;2022-08-19T06:02:05;16.10;99.90
16417;DHT22;8317;52.186;5.688;2022-08-19T06:04:32;16.30;99.90
16417;DHT22;8317;52.186;5.688;2022-08-19T06:06:59;16.40;99.90
16417;DHT22;8317;52.186;5.688;2022-08-19T06:09:27;16.50;99.90
16417;DHT22;8317;52.186;5.688;2022-08-19T06:11:55;16.70;99.90
16417;DHT22;8317;52.186;5.688;2022-08-19T06:14:29;16.60;99.90
16417;DHT22;8317;52.186;5.688;2022-08-19T06:16:57;16.80;99.90
16417;DHT22;8317;52.186;5.688;2022-08-19T06:19:25;16.90;99.90
16417;DHT22;8317;52.186;5.688;2022-08-19T06:21:56;17.10;99.90
16417;DHT22;8317;52.186;5.688;2022-08-19T06:24:26;17.20;99.90
16417;DHT22;8317;52.186;5.688;2022-08-19T06:26:55;17.50;99.90
16417;DHT22;8317;52.186;5.688;2022-08-19T06:29:26;17.70;99.90
16417;DHT22;8317;52.186;5.688;2022-08-19T06:31:56;17.70;99.90
16417;DHT22;8317;52.186;5.688;2022-08-19T06:34:24;18.20;99.90
16417;DHT22;8317;52.186;5.688;2022-08-19T06:36:52;18.30;99.90
16417;DHT22;8317;52.186;5.688;2022-08-19T06:39:22;18.40;99.90
16417;DHT22;8317;52.186;5.688;2022-08-19T06:41:51;18.70;99.90
16417;DHT22;8317;52.186;5.688;2022-08-19T06:44:20;18.90;99.90
16417;DHT22;8317;52.186;5.688;2022-08-19T06:46:48;18.90;99.90
16417;DHT22;8317;52.186;5.688;2022-08-19T06:49:16;19.30;99.90
16417;DHT22;8317;52.186;5.688;2022-08-19T06:51:45;19.20;99.90
16417;DHT22;8317;52.186;5.688;2022-08-19T06:54:13;19.30;99.90
16417;DHT22;8317;52.186;5.688;2022-08-19T06:56:41;19.50;99.90
16417;DHT22;8317;52.186;5.688;2022-08-19T06:59:11;19.60;99.90
16417;DHT22;8317;52.186;5.688;2022-08-19T07:01:42;19.70;99.90
16417;DHT22;8317;52.186;5.688;2022-08-19T07:04:14;20.00;99.90
16417;DHT22;8317;52.186;5.688;2022-08-19T07:06:42;20.30;99.90
16417;DHT22;8317;52.186;5.688;2022-08-19T07:09:11;20.60;99.90
16417;DHT22;8317;52.186;5.688;2022-08-19T07:11:38;20.60;99.90
16417;DHT22;8317;52.186;5.688;2022-08-19T07:14:05;20.60;99.90
16417;DHT22;8317;52.186;5.688;2022-08-19T07:16:32;21.00;99.90
16417;DHT22;8317;52.186;5.688;2022-08-19T07:18:59;20.90;99.90
16417;DHT22;8317;52.186;5.688;2022-08-19T07:21:28;21.10;99.90
16417;DHT22;8317;52.186;5.688;2022-08-19T07:23:55;21.30;99.90
16417;DHT22;8317;52.186;5.688;2022-08-19T07:26:27;21.50;99.90
16417;DHT22;8317;52.186;5.688;2022-08-19T07:28:55;21.70;99.90
16417;DHT22;8317;52.186;5.688;2022-08-19T07:31:24;21.50;99.90
16417;DHT22;8317;52.186;5.688;2022-08-19T07:33:53;21.30;99.90
16417;DHT22;8317;52.186;5.688;2022-08-19T07:36:23;21.60;99.90
16417;DHT22;8317;52.186;5.688;2022-08-19T07:38:52;21.50;99.90
16417;DHT22;8317;52.186;5.688;2022-08-19T07:41:23;21.30;99.90
16417;DHT22;8317;52.186;5.688;2022-08-19T07:43:50;21.70;99.90
16417;DHT22;8317;52.186;5.688;2022-08-19T07:46:18;21.40;99.90
16417;DHT22;8317;52.186;5.688;2022-08-19T07:48:48;21.50;99.90
16417;DHT22;8317;52.186;5.688;2022-08-19T07:51:18;21.80;99.90
16417;DHT22;8317;52.186;5.688;2022-08-19T07:53:46;21.60;99.90
16417;DHT22;8317;52.186;5.688;2022-08-19T07:56:18;21.60;99.90
16417;DHT22;8317;52.186;5.688;2022-08-19T07:58:47;21.70;99.90
16417;DHT22;8317;52.186;5.688;2022-08-19T08:01:17;21.80;99.90
16417;DHT22;8317;52.186;5.688;2022-08-19T08:03:45;22.00;99.90
16417;DHT22;8317;52.186;5.688;2022-08-19T08:06:29;21.90;99.90
16417;DHT22;8317;52.186;5.688;2022-08-19T08:09:16;21.90;99.90
16417;DHT22;8317;52.186;5.688;2022-08-19T08:11:49;21.90;99.90
16417;DHT22;8317;52.186;5.688;2022-08-19T08:14:18;21.90;99.90
16417;DHT22;8317;52.186;5.688;2022-08-19T08:16:47;22.10;99.90
16417;DHT22;8317;52.186;5.688;2022-08-19T08:19:18;22.30;99.90
16417;DHT22;8317;52.186;5.688;2022-08-19T08:21:46;22.10;99.90
16417;DHT22;8317;52.186;5.688;2022-08-19T08:24:14;21.70;99.90
16417;DHT22;8317;52.186;5.688;2022-08-19T08:26:41;21.80;99.90
16417;DHT22;8317;52.186;5.688;2022-08-19T08:29:11;21.90;99.90
16417;DHT22;8317;52.186;5.688;2022-08-19T08:31:39;22.00;99.90
16417;DHT22;8317;52.186;5.688;2022-08-19T08:34:06;22.80;99.90
16417;DHT22;8317;52.186;5.688;2022-08-19T08:36:36;22.80;99.90
16417;DHT22;8317;52.186;5.688;2022-08-19T08:39:07;23.20;99.90
16417;DHT22;8317;52.186;5.688;2022-08-19T08:41:40;23.20;99.90
16417;DHT22;8317;52.186;5.688;2022-08-19T08:44:15;23.40;99.90
16417;DHT22;8317;52.186;5.688;2022-08-19T08:46:47;23.40;99.90
16417;DHT22;8317;52.186;5.688;2022-08-19T08:49:24;23.40;99.90
16417;DHT22;8317;52.186;5.688;2022-08-19T08:51:58;23.50;99.90
16417;DHT22;8317;52.186;5.688;2022-08-19T08:54:30;23.80;99.90
16417;DHT22;8317;52.186;5.688;2022-08-19T08:56:59;24.10;99.90
16417;DHT22;8317;52.186;5.688;2022-08-19T08:59:30;24.40;99.90
16417;DHT22;8317;52.186;5.688;2022-08-19T09:01:58;24.60;99.90
16417;DHT22;8317;52.186;5.688;2022-08-19T09:04:25;24.70;99.90
16417;DHT22;8317;52.186;5.688;2022-08-19T09:06:57;24.00;99.90
16417;DHT22;8317;52.186;5.688;2022-08-19T09:09:33;23.90;99.90
16417;DHT22;8317;52.186;5.688;2022-08-19T09:12:05;23.60;99.90
16417;DHT22;8317;52.186;5.688;2022-08-19T09:14:42;23.90;99.90
16417;DHT22;8317;52.186;5.688;2022-08-19T09:17:12;24.20;99.90
16417;DHT22;8317;52.186;5.688;2022-08-19T09:19:50;24.60;99.90
16417;DHT22;8317;52.186;5.688;2022-08-19T09:22:17;25.10;99.90
16417;DHT22;8317;52.186;5.688;2022-08-19T09:24:46;25.30;99.90
16417;DHT22;8317;52.186;5.688;2022-08-19T09:27:13;25.30;99.90
16417;DHT22;8317;52.186;5.688;2022-08-19T09:29:41;25.20;99.90
16417;DHT22;8317;52.186;5.688;2022-08-19T09:32:08;25.50;99.90
16417;DHT22;8317;52.186;5.688;2022-08-19T09:34:35;25.40;99.90
16417;DHT22;8317;52.186;5.688;2022-08-19T09:37:02;25.90;99.90
16417;DHT22;8317;52.186;5.688;2022-08-19T09:39:29;26.00;99.90
16417;DHT22;8317;52.186;5.688;2022-08-19T09:41:56;26.20;99.90
16417;DHT22;8317;52.186;5.688;2022-08-19T09:44:23;26.10;99.90
16417;DHT22;8317;52.186;5.688;2022-08-19T09:46:52;26.10;99.90
16417;DHT22;8317;52.186;5.688;2022-08-19T09:49:20;26.60;99.90
16417;DHT22;8317;52.186;5.688;2022-08-19T09:51:49;26.60;99.90
16417;DHT22;8317;52.186;5.688;2022-08-19T09:54:17;26.90;99.90
16417;DHT22;8317;52.186;5.688;2022-08-19T09:56:44;26.50;99.90
16417;DHT22;8317;52.186;5.688;2022-08-19T09:59:11;26.30;99.90
16417;DHT22;8317;52.186;5.688;2022-08-19T10:01:38;26.20;99.90
16417;DHT22;8317;52.186;5.688;2022-08-19T10:04:06;26.30;99.90
16417;DHT22;8317;52.186;5.688;2022-08-19T10:06:35;26.10;99.90
16417;DHT22;8317;52.186;5.688;2022-08-19T10:09:03;26.20;99.90
16417;DHT22;8317;52.186;5.688;2022-08-19T10:11:32;25.80;99.90
16417;DHT22;8317;52.186;5.688;2022-08-19T10:13:59;26.80;99.90
16417;DHT22;8317;52.186;5.688;2022-08-19T10:16:26;27.30;99.90
16417;DHT22;8317;52.186;5.688;2022-08-19T10:18:54;27.20;99.90
16417;DHT22;8317;52.186;5.688;2022-08-19T10:21:25;27.10;99.90
16417;DHT22;8317;52.186;5.688;2022-08-19T10:23:54;27.40;99.90
16417;DHT22;8317;52.186;5.688;2022-08-19T10:26:23;27.30;99.90
16417;DHT22;8317;52.186;5.688;2022-08-19T10:28:50;27.60;99.90
16417;DHT22;8317;52.186;5.688;2022-08-19T10:31:20;27.90;99.90
16417;DHT22;8317;52.186;5.688;2022-08-19T10:33:49;28.20;99.90
16417;DHT22;8317;52.186;5.688;2022-08-19T10:36:18;28.10;99.90
16417;DHT22;8317;52.186;5.688;2022-08-19T10:38:49;28.10;99.90
16417;DHT22;8317;52.186;5.688;2022-08-19T10:41:18;27.80;99.90
16417;DHT22;8317;52.186;5.688;2022-08-19T10:43:45;27.20;99.90
16417;DHT22;8317;52.186;5.688;2022-08-19T10:46:14;27.80;99.90
16417;DHT22;8317;52.186;5.688;2022-08-19T10:48:42;28.20;99.90
16417;DHT22;8317;52.186;5.688;2022-08-19T10:51:10;27.60;99.90
16417;DHT22;8317;52.186;5.688;2022-08-19T10:53:56;26.70;99.90
16417;DHT22;8317;52.186;5.688;2022-08-19T10:56:24;26.00;99.90
16417;DHT22;8317;52.186;5.688;2022-08-19T10:59:09;26.60;99.90
16417;DHT22;8317;52.186;5.688;2022-08-19T11:01:36;26.30;99.90
16417;DHT22;8317;52.186;5.688;2022-08-19T11:04:04;26.70;99.90
16417;DHT22;8317;52.186;5.688;2022-08-19T11:06:34;26.90;99.90
16417;DHT22;8317;52.186;5.688;2022-08-19T11:09:03;27.30;99.90
16417;DHT22;8317;52.186;5.688;2022-08-19T11:11:31;27.60;99.90
16417;DHT22;8317;52.186;5.688;2022-08-19T11:13:58;28.10;99.90
16417;DHT22;8317;52.186;5.688;2022-08-19T11:16:26;28.10;99.90
16417;DHT22;8317;52.186;5.688;2022-08-19T11:18:58;28.70;99.90
16417;DHT22;8317;52.186;5.688;2022-08-19T11:21:27;29.00;99.90
16417;DHT22;8317;52.186;5.688;2022-08-19T11:23:58;28.70;99.90
16417;DHT22;8317;52.186;5.688;2022-08-19T11:26:27;28.90;99.90
16417;DHT22;8317;52.186;5.688;2022-08-19T11:28:55;28.10;99.90
16417;DHT22;8317;52.186;5.688;2022-08-19T11:31:25;29.10;99.90
16417;DHT22;8317;52.186;5.688;2022-08-19T11:33:52;28.60;99.90
16417;DHT22;8317;52.186;5.688;2022-08-19T11:36:20;28.70;99.90
16417;DHT22;8317;52.186;5.688;2022-08-19T11:38:48;29.00;99.90
16417;DHT22;8317;52.186;5.688;2022-08-19T11:41:17;28.70;99.90
16417;DHT22;8317;52.186;5.688;2022-08-19T11:43:46;28.30;99.90
16417;DHT22;8317;52.186;5.688;2022-08-19T11:46:15;27.70;99.90
16417;DHT22;8317;52.186;5.688;2022-08-19T11:48:43;27.90;99.90
16417;DHT22;8317;52.186;5.688;2022-08-19T11:51:12;28.20;99.90
16417;DHT22;8317;52.186;5.688;2022-08-19T11:53:39;28.20;99.90
16417;DHT22;8317;52.186;5.688;2022-08-19T11:56:08;28.20;99.90
16417;DHT22;8317;52.186;5.688;2022-08-19T11:58:36;28.30;99.90
16417;DHT22;8317;52.186;5.688;2022-08-19T12:01:07;28.50;99.90
16417;DHT22;8317;52.186;5.688;2022-08-19T12:03:35;28.10;99.90
16417;DHT22;8317;52.186;5.688;2022-08-19T12:06:04;28.10;99.90
16417;DHT22;8317;52.186;5.688;2022-08-19T12:08:31;28.00;99.90
16417;DHT22;8317;52.186;5.688;2022-08-19T12:10:58;28.20;99.90
16417;DHT22;8317;52.186;5.688;2022-08-19T12:13:27;28.20;99.90
16417;DHT22;8317;52.186;5.688;2022-08-19T12:15:53;28.40;99.90
16417;DHT22;8317;52.186;5.688;2022-08-19T12:18:22;28.10;99.90
16417;DHT22;8317;52.186;5.688;2022-08-19T12:20:51;27.90;99.90
16417;DHT22;8317;52.186;5.688;2022-08-19T12:23:20;28.00;99.90
16417;DHT22;8317;52.186;5.688;2022-08-19T12:25:49;28.10;99.90
16417;DHT22;8317;52.186;5.688;2022-08-19T12:28:18;27.90;99.90
16417;DHT22;8317;52.186;5.688;2022-08-19T12:30:45;27.90;99.90
16417;DHT22;8317;52.186;5.688;2022-08-19T12:33:12;28.30;99.90
16417;DHT22;8317;52.186;5.688;2022-08-19T12:35:42;28.60;99.90
16417;DHT22;8317;52.186;5.688;2022-08-19T12:38:12;28.50;99.90
16417;DHT22;8317;52.186;5.688;2022-08-19T12:40:40;27.90;99.90
16417;DHT22;8317;52.186;5.688;2022-08-19T12:43:07;27.70;99.90
16417;DHT22;8317;52.186;5.688;2022-08-19T12:45:34;27.60;99.90
16417;DHT22;8317;52.186;5.688;2022-08-19T12:48:02;27.40;99.90
16417;DHT22;8317;52.186;5.688;2022-08-19T12:50:29;27.30;99.90
16417;DHT22;8317;52.186;5.688;2022-08-19T12:52:58;27.10;99.90
16417;DHT22;8317;52.186;5.688;2022-08-19T12:55:25;27.10;99.90
16417;DHT22;8317;52.186;5.688;2022-08-19T12:57:53;27.20;99.90
16417;DHT22;8317;52.186;5.688;2022-08-19T13:00:21;27.20;99.90
16417;DHT22;8317;52.186;5.688;2022-08-19T13:02:50;27.20;99.90
16417;DHT22;8317;52.186;5.688;2022-08-19T13:05:19;27.10;99.90
16417;DHT22;8317;52.186;5.688;2022-08-19T13:07:49;27.00;99.90
16417;DHT22;8317;52.186;5.688;2022-08-19T13:10:19;26.80;99.90
16417;DHT22;8317;52.186;5.688;2022-08-19T13:12:48;26.70;99.90
16417;DHT22;8317;52.186;5.688;2022-08-19T13:15:17;26.60;99.90
16417;DHT22;8317;52.186;5.688;2022-08-19T13:17:46;26.50;99.90
16417;DHT22;8317;52.186;5.688;2022-08-19T13:20:14;26.30;99.90
16417;DHT22;8317;52.186;5.688;2022-08-19T13:22:42;26.10;99.90
16417;DHT22;8317;52.186;5.688;2022-08-19T13:25:10;25.70;99.90
16417;DHT22;8317;52.186;5.688;2022-08-19T13:27:39;25.20;99.90
16417;DHT22;8317;52.186;5.688;2022-08-19T13:30:09;24.70;99.90
16417;DHT22;8317;52.186;5.688;2022-08-19T13:32:53;24.70;99.90
16417;DHT22;8317;52.186;5.688;2022-08-19T13:35:43;24.50;99.90
16417;DHT22;8317;52.186;5.688;2022-08-19T13:38:11;24.20;99.90
16417;DHT22;8317;52.186;5.688;2022-08-19T13:40:39;23.70;99.90
16417;DHT22;8317;52.186;5.688;2022-08-19T13:43:08;23.60;99.90
16417;DHT22;8317;52.186;5.688;2022-08-19T13:45:35;23.70;99.90
16417;DHT22;8317;52.186;5.688;2022-08-19T13:48:04;23.90;99.90
16417;DHT22;8317;52.186;5.688;2022-08-19T13:50:32;23.70;99.90
16417;DHT22;8317;52.186;5.688;2022-08-19T13:53:00;23.60;99.90
16417;DHT22;8317;52.186;5.688;2022-08-19T13:55:27;23.40;99.90
16417;DHT22;8317;52.186;5.688;2022-08-19T13:57:56;23.00;99.90
16417;DHT22;8317;52.186;5.688;2022-08-19T14:00:26;23.10;99.90
16417;DHT22;8317;52.186;5.688;2022-08-19T14:02:55;23.20;99.90
16417;DHT22;8317;52.186;5.688;2022-08-19T14:05:23;23.20;99.90
16417;DHT22;8317;52.186;5.688;2022-08-19T14:07:51;23.50;99.90
16417;DHT22;8317;52.186;5.688;2022-08-19T14:10:18;23.70;99.90
16417;DHT22;8317;52.186;5.688;2022-08-19T14:12:45;23.80;99.90
16417;DHT22;8317;52.186;5.688;2022-08-19T14:15:13;23.80;99.90
16417;DHT22;8317;52.186;5.688;2022-08-19T14:17:43;23.90;99.90
16417;DHT22;8317;52.186;5.688;2022-08-19T14:20:12;23.70;99.90
16417;DHT22;8317;52.186;5.688;2022-08-19T14:22:42;23.70;99.90
16417;DHT22;8317;52.186;5.688;2022-08-19T14:25:11;23.80;99.90
16417;DHT22;8317;52.186;5.688;2022-08-19T14:27:39;24.10;99.90
16417;DHT22;8317;52.186;5.688;2022-08-19T14:30:09;23.90;99.90
16417;DHT22;8317;52.186;5.688;2022-08-19T14:32:36;23.80;99.90
16417;DHT22;8317;52.186;5.688;2022-08-19T14:35:05;23.80;99.90
16417;DHT22;8317;52.186;5.688;2022-08-19T14:37:33;23.70;99.90
16417;DHT22;8317;52.186;5.688;2022-08-19T14:40:00;23.60;99.90
16417;DHT22;8317;52.186;5.688;2022-08-19T14:42:26;23.80;99.90
16417;DHT22;8317;52.186;5.688;2022-08-19T14:44:57;23.50;99.90
16417;DHT22;8317;52.186;5.688;2022-08-19T14:47:24;23.70;99.90
16417;DHT22;8317;52.186;5.688;2022-08-19T14:49:51;23.30;99.90
16417;DHT22;8317;52.186;5.688;2022-08-19T14:52:19;23.40;99.90
16417;DHT22;8317;52.186;5.688;2022-08-19T14:54:46;23.40;99.90
16417;DHT22;8317;52.186;5.688;2022-08-19T14:57:13;23.30;99.90
16417;DHT22;8317;52.186;5.688;2022-08-19T14:59:41;23.30;99.90
16417;DHT22;8317;52.186;5.688;2022-08-19T15:02:08;23.00;99.90
16417;DHT22;8317;52.186;5.688;2022-08-19T15:04:35;23.00;99.90
16417;DHT22;8317;52.186;5.688;2022-08-19T15:07:02;23.10;99.90
16417;DHT22;8317;52.186;5.688;2022-08-19T15:09:31;23.20;99.90
16417;DHT22;8317;52.186;5.688;2022-08-19T15:11:58;23.40;99.90
16417;DHT22;8317;52.186;5.688;2022-08-19T15:14:27;23.30;99.90
16417;DHT22;8317;52.186;5.688;2022-08-19T15:16:59;23.30;99.90
16417;DHT22;8317;52.186;5.688;2022-08-19T15:19:26;23.50;99.90
16417;DHT22;8317;52.186;5.688;2022-08-19T15:21:53;23.50;99.90
16417;DHT22;8317;52.186;5.688;2022-08-19T15:24:20;23.50;99.90
16417;DHT22;8317;52.186;5.688;2022-08-19T15:26:50;23.40;99.90
16417;DHT22;8317;52.186;5.688;2022-08-19T15:29:16;23.60;99.90
16417;DHT22;8317;52.186;5.688;2022-08-19T15:31:43;23.50;99.90
16417;DHT22;8317;52.186;5.688;2022-08-19T15:34:11;23.30;99.90
16417;DHT22;8317;52.186;5.688;2022-08-19T15:36:38;23.30;99.90
16417;DHT22;8317;52.186;5.688;2022-08-19T15:39:05;23.40;99.90
16417;DHT22;8317;52.186;5.688;2022-08-19T15:41:35;23.30;99.90
16417;DHT22;8317;52.186;5.688;2022-08-19T15:44:06;23.30;99.90
16417;DHT22;8317;52.186;5.688;2022-08-19T15:46:36;23.30;99.90
16417;DHT22;8317;52.186;5.688;2022-08-19T15:49:04;23.60;99.90
16417;DHT22;8317;52.186;5.688;2022-08-19T15:51:33;23.70;99.90
16417;DHT22;8317;52.186;5.688;2022-08-19T15:54:05;23.70;99.90